Terminal Aerodrome Forecast
Issued by NWS

Home | Current Version | Previous Version | Text Only | Print | Product List | Glossary On
Versions: 1 2 3 4 5 6 7 8 9 10 11 12 13 14 15 16 17
000
FTUS44 KMOB 191700
TAFBFM
TAF
KBFM 191740Z 1918/2018 36013G20KT P6SM FEW040 FEW250
     FM192300 36009KT P6SM SCT250
     FM201500 03009KT P6SM FEW040 SCT250=

USA.gov is the U.S. government's official web portal to all federal, state and local government web resources and services.